Main page
Satellite images 10-day forecastsClimateMarine weather Cyclones Lightning AirportsFAQ Newsletter About
Weather : Europe Africa North America South America Asia Australia-Oceania Others
Languages Contact

Rovaniemi, Finland

Rovaniemi Airport

latitude: 66-34N, longitude: 025-50E, elevation: 197 m


METAR: EFRO 262320Z AUTO 14007KT CAVOK M07/M14 Q1025
TAF: EFRO 262024Z 2621/2721 16008KT CAVOK BECMG 2719/2721 6000 -SN BKN013

Time: 01:42 (23:42 UTC)

Current weather observation

The report was made 22 minutes ago, at 23:20 UTC
Wind 7 kt from the Southeast
Temperature -7°C
Humidity 57%
Pressure 1025 hPa
Visibility 10 km or more
no clouds below 1500 m and no cumulonimbus

Change units

Forecast

The report was made 3 hours and 18 minutes ago, at 20:24 UTC
Forecast valid from 26 at 21 UTC to 27 at 21 UTC
Wind 8 kt from the South/Southeast
Visibility 10 km or more
no clouds below 1500 m and no cumulonimbus
Becoming
from 27 at 19 UTC to 27 at 21 UTC
Visibility: 6000 m
Broken clouds at a height of 1300 ft
light snow
The information on this site is subject to a disclaimer
Weather : Europe Africa North America South America Asia Australia-Oceania Others
Satellite images 10-day forecastsClimateMarine weather Cyclones Lightning AirportsFAQ Languages Contact Newsletter About